Time;durP1;ratioP1;P1;durP2;ratioP2;P2;SDS_P1;SDS_P2;PMS_P1;PMS_P2;Temp;Humidity;BMP_temperature;BMP_pressure;BME280_temperature;BME280_humidity;BME280_pressure;Samples;Min_cycle;Max_cycle;Signal;HPM_P1;HPM_P2
2021/05/23 00:00:23;;;;;;;18.62;5.90;;;;;;;13.43;65.66;99983.27;1777989;80;21179;-82
2021/05/23 00:03:29;;;;;;;12.70;5.80;;;;;;;13.46;65.43;99981.50;1778314;80;21162;-82
2021/05/23 00:06:35;;;;;;;14.78;5.53;;;;;;;13.48;65.18;99985.41;1778309;80;21268;-82
2021/05/23 00:09:44;;;;;;;13.53;5.62;;;;;;;13.47;65.05;99992.80;1778187;80;21165;-82
2021/05/23 00:12:49;;;;;;;11.38;5.60;;;;;;;13.46;64.82;99992.48;1778309;80;21292;-82
2021/05/23 00:16:05;;;;;;;18.80;6.55;;;;;;;13.43;64.93;99994.25;1778275;80;21323;-82
2021/05/23 00:19:12;;;;;;;13.75;6.30;;;;;;;13.41;64.95;99996.37;1776574;80;21185;-82
2021/05/23 00:22:17;;;;;;;14.20;5.85;;;;;;;13.39;65.10;100006.69;1778239;80;21162;-82
2021/05/23 00:25:26;;;;;;;17.65;6.50;;;;;;;13.35;65.25;99997.68;1762345;80;21838;-82
2021/05/23 00:28:35;;;;;;;32.03;9.93;;;;;;;13.30;65.37;99992.80;1778447;80;21308;-82
2021/05/23 00:31:41;;;;;;;29.12;10.05;;;;;;;13.21;65.79;99987.10;1778221;80;21691;-82
2021/05/23 00:34:46;;;;;;;23.60;8.68;;;;;;;13.09;66.06;99995.59;1778374;80;21149;-82
2021/05/23 00:37:52;;;;;;;19.50;6.45;;;;;;;12.97;66.19;99985.14;1759782;80;21811;-82
2021/05/23 00:40:57;;;;;;;12.93;4.47;;;;;;;12.90;66.43;99986.16;1763672;80;21303;-82
2021/05/23 00:44:02;;;;;;;18.10;5.67;;;;;;;12.81;66.61;99982.70;1779530;80;21192;-82
2021/05/23 00:47:06;;;;;;;17.48;6.15;;;;;;;12.79;66.89;99984.78;1783783;80;21277;-82
2021/05/23 00:50:14;;;;;;;15.38;6.28;;;;;;;12.75;67.23;99984.36;1783903;80;21877;-82
2021/05/23 00:53:20;;;;;;;19.98;4.75;;;;;;;12.70;67.30;99970.38;1783955;80;21870;-82
2021/05/23 00:56:26;;;;;;;6.65;3.85;;;;;;;12.68;67.22;99976.58;1783845;80;21312;-82
2021/05/23 00:59:34;;;;;;;8.45;3.85;;;;;;;12.70;67.11;99964.89;1783852;80;21193;-82
2021/05/23 01:02:52;;;;;;;10.72;3.37;;;;;;;12.74;66.85;99965.33;1783767;80;21656;-82
2021/05/23 01:05:58;;;;;;;9.93;4.12;;;;;;;12.79;66.57;99958.71;1783983;80;21264;-82
2021/05/23 01:09:03;;;;;;;17.77;4.92;;;;;;;12.87;66.36;99965.44;1783856;80;21854;-82
2021/05/23 01:12:34;;;;;;;19.87;4.65;;;;;;;12.89;66.25;99956.98;1783724;80;21145;-82
2021/05/23 01:15:47;;;;;;;16.90;3.83;;;;;;;12.89;66.18;99963.35;1783698;80;21205;-82
2021/05/23 01:19:00;;;;;;;15.15;4.95;;;;;;;12.85;66.25;99951.07;1746073;80;21169;-82
2021/05/23 01:22:13;;;;;;;15.20;5.70;;;;;;;12.85;66.31;99953.81;1783887;80;21268;-82
2021/05/23 01:25:23;;;;;;;15.60;6.33;;;;;;;12.83;66.33;99951.78;1783928;80;21261;-82
2021/05/23 01:28:29;;;;;;;17.92;6.58;;;;;;;12.81;66.38;99952.52;1784054;80;21200;-82
2021/05/23 01:31:36;;;;;;;18.52;6.15;;;;;;;12.78;66.47;99963.87;1783725;80;21224;-82
2021/05/23 01:34:43;;;;;;;14.10;4.83;;;;;;;12.76;66.63;99965.46;1783903;80;21157;-82
2021/05/23 01:37:48;;;;;;;16.73;4.53;;;;;;;12.75;66.73;99960.16;1783867;80;21268;-82
2021/05/23 01:40:54;;;;;;;10.10;3.80;;;;;;;12.76;66.66;99957.76;1783884;80;21803;-82
2021/05/23 01:44:00;;;;;;;10.53;3.27;;;;;;;12.78;66.35;99950.16;1783652;80;21697;-82
2021/05/23 01:47:05;;;;;;;15.70;4.67;;;;;;;12.82;65.97;99956.95;1769206;80;21909;-82
2021/05/23 01:50:11;;;;;;;10.90;4.22;;;;;;;12.88;65.54;99962.16;1783780;80;21195;-82
2021/05/23 01:53:16;;;;;;;12.33;3.77;;;;;;;12.93;65.35;99960.51;1783700;80;21851;-82
2021/05/23 01:56:24;;;;;;;12.23;4.08;;;;;;;12.99;65.07;99969.34;1783909;80;21153;-82
2021/05/23 01:59:29;;;;;;;11.38;4.30;;;;;;;13.04;64.96;99968.73;1783732;80;21300;-82
2021/05/23 02:02:35;;;;;;;10.40;4.40;;;;;;;13.08;64.95;99973.28;1770397;80;21245;-82
2021/05/23 02:05:41;;;;;;;11.43;4.58;;;;;;;13.08;64.93;99967.78;1783872;80;21145;-82
2021/05/23 02:08:47;;;;;;;15.43;4.50;;;;;;;13.09;64.99;99968.13;1783849;80;21299;-82
2021/05/23 02:11:55;;;;;;;10.78;4.33;;;;;;;13.08;65.12;99963.17;1783947;80;21296;-82
2021/05/23 02:14:59;;;;;;;16.00;4.87;;;;;;;13.07;65.31;99963.34;1784028;80;21691;-82
2021/05/23 02:18:04;;;;;;;12.95;5.03;;;;;;;13.05;65.41;99961.66;1783638;80;21197;-82
2021/05/23 02:21:09;;;;;;;24.65;5.67;;;;;;;13.06;65.41;99962.50;1783813;80;21292;-82
2021/05/23 02:24:15;;;;;;;14.68;5.25;;;;;;;13.13;65.30;99963.41;1783700;80;21208;-82
2021/05/23 02:27:21;;;;;;;8.93;4.30;;;;;;;13.27;65.17;99965.22;1783874;80;21157;-82
2021/05/23 02:30:34;;;;;;;9.33;3.98;;;;;;;13.47;64.76;99972.20;1770556;80;21263;-82
2021/05/23 02:33:39;;;;;;;13.95;4.12;;;;;;;13.62;64.25;99962.44;1755887;80;21797;-82
2021/05/23 02:36:45;;;;;;;8.55;4.47;;;;;;;13.77;63.86;99960.38;1783962;80;21896;-82
2021/05/23 02:39:51;;;;;;;13.32;5.10;;;;;;;13.92;63.54;99964.86;1783818;80;21316;-82
2021/05/23 02:42:55;;;;;;;9.53;4.30;;;;;;;14.05;63.02;99965.75;1783834;80;21216;-82
2021/05/23 02:46:04;;;;;;;14.47;5.05;;;;;;;14.14;62.72;99969.70;1763560;80;21719;-82
2021/05/23 02:49:11;;;;;;;6.87;3.98;;;;;;;14.18;62.40;99966.33;1770095;81;21826;-82
2021/05/23 02:52:19;;;;;;;8.18;3.87;;;;;;;14.18;62.10;99965.48;1770112;81;21291;-82
2021/05/23 02:55:24;;;;;;;12.10;4.72;;;;;;;14.17;61.79;99971.52;1770117;81;21691;-82
2021/05/23 02:58:29;;;;;;;9.18;4.05;;;;;;;14.17;61.84;99969.30;1770136;81;21877;-82
2021/05/23 03:01:36;;;;;;;13.20;5.08;;;;;;;14.11;61.93;99962.70;1770097;81;21289;-82
2021/05/23 03:04:42;;;;;;;13.20;5.12;;;;;;;14.10;61.90;99962.38;1762021;81;21763;-82
2021/05/23 03:07:49;;;;;;;9.70;4.05;;;;;;;14.13;62.59;99966.64;1770103;81;21300;-82
2021/05/23 03:10:57;;;;;;;15.68;4.83;;;;;;;14.22;61.81;99967.61;1770266;81;21787;-82
2021/05/23 03:14:02;;;;;;;10.48;4.60;;;;;;;14.42;61.34;99963.51;1770119;81;21333;-82
2021/05/23 03:17:08;;;;;;;15.55;4.78;;;;;;;14.71;60.69;99959.53;1768620;80;21157;-82
2021/05/23 03:20:16;;;;;;;16.57;5.28;;;;;;;15.03;59.75;99967.46;1770037;81;21272;-82
2021/05/23 03:23:21;;;;;;;99.95;35.50;;;;;;;15.38;59.17;99968.55;1770138;81;21308;-82
2021/05/23 03:26:28;;;;;;;43.55;16.27;;;;;;;15.71;58.20;99973.14;1770032;81;21269;-83
2021/05/23 03:29:35;;;;;;;16.97;6.97;;;;;;;15.93;57.57;99973.70;1770190;81;21284;-83
2021/05/23 03:32:40;;;;;;;20.12;6.00;;;;;;;16.07;57.36;99986.36;1769984;81;21796;-83
2021/05/23 03:35:46;;;;;;;15.53;5.70;;;;;;;16.26;57.15;99990.08;1770236;81;21265;-83
2021/05/23 03:38:55;;;;;;;24.37;7.22;;;;;;;16.43;57.01;99994.55;1769936;81;21304;-83
2021/05/23 03:42:00;;;;;;;22.05;8.93;;;;;;;16.58;56.63;99986.26;1768480;80;21185;-83
2021/05/23 03:45:06;;;;;;;36.13;10.35;;;;;;;16.71;56.75;99998.29;1761133;81;21795;-83
2021/05/23 03:48:13;;;;;;;28.47;9.00;;;;;;;16.88;57.00;99993.91;1761034;80;21169;-83
2021/05/23 03:51:19;;;;;;;21.80;8.88;;;;;;;17.13;57.25;99994.47;1778430;80;21272;-83
2021/05/23 03:54:24;;;;;;;17.45;6.85;;;;;;;17.36;57.10;99994.63;1778440;80;21185;-83
2021/05/23 03:57:30;;;;;;;19.42;6.67;;;;;;;17.61;56.68;100003.73;1778296;80;21284;-83
2021/05/23 04:00:36;;;;;;;18.12;7.33;;;;;;;17.82;55.97;100009.37;1778325;80;21264;-83
2021/05/23 04:03:41;;;;;;;13.68;7.28;;;;;;;17.93;55.40;100013.30;1778223;80;21145;-83
2021/05/23 04:06:49;;;;;;;17.65;7.55;;;;;;;17.95;55.52;100013.91;1778352;80;21830;-83
2021/05/23 04:09:57;;;;;;;15.40;7.58;;;;;;;17.95;54.90;100008.91;1762105;80;21264;-83
2021/05/23 04:13:03;;;;;;;20.95;6.80;;;;;;;17.98;54.97;100016.22;1763398;80;21193;-83
2021/05/23 04:16:08;;;;;;;15.25;7.08;;;;;;;18.12;54.40;100009.44;1778444;80;21268;-83
2021/05/23 04:19:14;;;;;;;24.35;8.25;;;;;;;18.27;53.27;100006.25;1777448;80;21654;-83
2021/05/23 04:22:22;;;;;;;13.55;6.75;;;;;;;18.39;52.18;100002.13;1776525;80;21181;-83
2021/05/23 04:25:27;;;;;;;20.65;6.87;;;;;;;18.55;52.29;100016.72;1763660;80;21320;-83
2021/05/23 04:28:32;;;;;;;19.23;6.12;;;;;;;18.69;51.55;100012.40;1763664;80;21814;-83
2021/05/23 04:31:38;;;;;;;15.15;6.05;;;;;;;18.82;50.94;100017.70;1778473;80;21154;-83
2021/05/23 04:34:44;;;;;;;11.38;5.00;;;;;;;18.97;50.74;100027.82;1778213;80;21738;-83
2021/05/23 04:37:51;;;;;;;14.15;5.33;;;;;;;19.18;49.97;100032.48;1778426;80;21189;-83
2021/05/23 04:40:57;;;;;;;18.62;5.62;;;;;;;19.39;49.57;100031.36;1778153;80;21289;-83
2021/05/23 04:44:06;;;;;;;16.77;5.33;;;;;;;19.65;49.58;100028.66;1778404;80;21253;-83
2021/05/23 04:47:12;;;;;;;11.10;5.20;;;;;;;19.94;49.39;100038.45;1777986;80;21157;-83
2021/05/23 04:50:17;;;;;;;15.32;5.40;;;;;;;20.22;49.20;100032.64;1778138;80;21294;-83
2021/05/23 04:53:22;;;;;;;13.30;5.45;;;;;;;20.46;49.76;100046.74;1762502;80;21300;-83
2021/05/23 04:56:28;;;;;;;10.03;4.97;;;;;;;20.64;48.92;100045.19;1778211;80;21307;-83
2021/05/23 04:59:34;;;;;;;14.18;4.80;;;;;;;20.83;48.37;100056.94;1778375;80;21862;-84
2021/05/23 05:02:41;;;;;;;9.83;4.60;;;;;;;21.03;47.20;100052.83;1778339;80;21799;-84
2021/05/23 05:05:45;;;;;;;10.25;3.98;;;;;;;21.16;46.54;100060.30;1761736;80;21323;-83
2021/05/23 05:08:52;;;;;;;11.35;3.65;;;;;;;21.19;46.67;100055.63;1778487;80;21859;-83
2021/05/23 05:11:57;;;;;;;7.37;3.40;;;;;;;21.22;45.52;100046.48;1778353;80;21316;-83
2021/05/23 05:15:03;;;;;;;11.35;3.30;;;;;;;21.34;45.14;100043.11;1778046;80;21154;-83
2021/05/23 05:18:10;;;;;;;6.15;2.83;;;;;;;21.50;43.79;100042.27;1778424;80;21204;-83
2021/05/23 05:21:15;;;;;;;8.43;3.80;;;;;;;21.63;43.55;100042.44;1778095;80;21188;-83
2021/05/23 05:24:22;;;;;;;10.20;4.03;;;;;;;21.78;43.77;100049.61;1776917;80;21304;-83
2021/05/23 05:27:27;;;;;;;16.32;5.25;;;;;;;21.97;44.14;100046.53;1778288;80;21308;-84
2021/05/23 05:30:33;;;;;;;12.85;5.10;;;;;;;22.07;43.98;100043.36;1778282;80;21150;-84
2021/05/23 05:33:38;;;;;;;11.78;4.92;;;;;;;22.19;43.19;100041.30;1777450;80;21220;-84
2021/05/23 05:36:42;;;;;;;12.50;5.10;;;;;;;22.39;43.58;100041.25;1778384;80;21161;-84
2021/05/23 05:39:51;;;;;;;13.03;4.72;;;;;;;22.55;42.41;100033.37;1778326;80;21265;-84
2021/05/23 05:42:57;;;;;;;13.83;5.25;;;;;;;22.71;41.49;100037.16;1778233;80;21233;-84
2021/05/23 05:46:02;;;;;;;14.58;5.50;;;;;;;22.81;41.29;100035.02;1777682;80;21787;-84
2021/05/23 05:49:07;;;;;;;18.82;6.62;;;;;;;22.90;40.98;100034.86;1775833;80;21329;-83
2021/05/23 05:52:13;;;;;;;25.25;8.40;;;;;;;23.02;40.04;100031.92;1770230;81;21154;-84
2021/05/23 05:55:20;;;;;;;18.07;8.40;;;;;;;23.05;39.19;100036.95;1770063;81;21264;-84
2021/05/23 05:58:25;;;;;;;21.50;7.42;;;;;;;23.08;39.14;100040.61;1770066;81;21225;-83
2021/05/23 06:01:31;;;;;;;27.75;8.40;;;;;;;23.13;39.81;100040.10;1770156;81;21264;-84
2021/05/23 06:04:37;;;;;;;25.32;8.23;;;;;;;23.15;37.94;100035.11;1769633;81;22475;-84
2021/05/23 06:07:41;;;;;;;21.40;8.60;;;;;;;23.17;36.85;100030.66;1770092;81;21827;-84
2021/05/23 06:10:47;;;;;;;21.40;8.05;;;;;;;23.19;37.67;100029.27;1769840;81;21312;-84
2021/05/23 06:13:51;;;;;;;16.40;7.65;;;;;;;23.23;36.24;100025.95;1770194;81;21323;-84
2021/05/23 06:16:59;;;;;;;13.75;7.58;;;;;;;23.21;36.31;100032.65;1762030;81;21308;-84
2021/05/23 06:20:03;;;;;;;20.97;6.17;;;;;;;23.23;36.61;100032.92;1760355;81;21470;-84
2021/05/23 06:23:10;;;;;;;20.50;7.20;;;;;;;23.28;35.54;100031.57;1770188;81;21743;-84
2021/05/23 06:26:17;;;;;;;16.93;6.87;;;;;;;23.25;35.08;100037.14;1761869;81;21815;-84
2021/05/23 06:29:16;;;;;;;20.77;5.67;;;;;;;23.20;36.04;100030.13;1770151;81;21918;-84
2021/05/23 06:32:22;;;;;;;11.60;3.55;;;;;;;23.18;35.88;100027.59;1770156;81;21273;-84
2021/05/23 06:35:27;;;;;;;10.85;3.33;;;;;;;23.17;34.46;100029.27;1768687;81;21814;-84
2021/05/23 06:38:34;;;;;;;10.23;3.47;;;;;;;23.14;34.98;100027.83;1769794;81;21190;-84
2021/05/23 06:41:39;;;;;;;10.93;4.40;;;;;;;23.16;36.62;100030.37;1770173;81;21268;-83
2021/05/23 06:44:45;;;;;;;23.40;7.40;;;;;;;23.14;36.69;100032.02;1770076;81;21292;-84
2021/05/23 06:47:50;;;;;;;21.10;9.73;;;;;;;23.16;37.95;100020.05;1761281;81;21340;-84
2021/05/23 06:50:58;;;;;;;21.97;6.42;;;;;;;23.18;36.24;100032.33;1763740;80;21150;-84
2021/05/23 06:54:03;;;;;;;21.15;6.17;;;;;;;23.15;35.70;100036.51;1778448;80;21319;-84
2021/05/23 06:57:09;;;;;;;18.25;7.87;;;;;;;23.16;34.90;100032.61;1778375;80;21845;-84
2021/05/23 07:00:15;;;;;;;12.30;5.00;;;;;;;23.16;35.21;100029.81;1778254;80;21273;-84
2021/05/23 07:03:23;;;;;;;15.60;5.22;;;;;;;23.17;35.40;100031.48;1778164;80;21173;-84
2021/05/23 07:06:29;;;;;;;7.58;2.42;;;;;;;23.19;36.25;100034.00;1778218;80;21842;-84
2021/05/23 07:09:34;;;;;;;4.70;1.90;;;;;;;23.20;34.33;100040.73;1778223;80;21356;-84
2021/05/23 07:12:39;;;;;;;8.15;2.55;;;;;;;23.22;33.53;100041.86;1778301;80;21228;-84
2021/05/23 07:15:43;;;;;;;7.20;2.45;;;;;;;23.24;34.19;100036.00;1778263;80;21269;-84
2021/05/23 07:18:49;;;;;;;5.85;1.72;;;;;;;23.28;33.34;100044.13;1776658;80;21185;-83
2021/05/23 07:21:55;;;;;;;4.87;1.40;;;;;;;23.29;32.33;100041.62;1778301;80;21737;-84
2021/05/23 07:25:00;;;;;;;5.12;1.40;;;;;;;23.30;33.32;100037.74;1777927;80;21181;-84
2021/05/23 07:28:06;;;;;;;6.30;1.40;;;;;;;23.32;32.95;100037.75;1778315;80;21296;-84
2021/05/23 07:31:13;;;;;;;5.72;1.10;;;;;;;23.37;31.69;100050.90;1778241;80;21803;-84
2021/05/23 07:34:19;;;;;;;3.85;1.12;;;;;;;23.39;30.41;100041.16;1778298;80;21297;-84
2021/05/23 07:37:25;;;;;;;4.72;1.57;;;;;;;23.48;31.30;100045.70;1777811;80;21802;-84
2021/05/23 07:40:31;;;;;;;8.63;1.30;;;;;;;23.56;31.69;100049.92;1778377;80;21652;-84
2021/05/23 07:43:39;;;;;;;6.20;1.10;;;;;;;23.67;31.21;100044.75;1778055;80;21315;-84
2021/05/23 07:46:46;;;;;;;2.27;1.05;;;;;;;23.79;31.81;100050.11;1777794;80;21315;-83
2021/05/23 07:49:51;;;;;;;2.75;1.00;;;;;;;23.85;31.44;100060.20;1776842;80;21212;-84
2021/05/23 07:52:57;;;;;;;3.98;0.82;;;;;;;23.90;31.29;100052.71;1770002;80;21878;-84
2021/05/23 07:56:03;;;;;;;2.98;1.30;;;;;;;24.01;31.85;100053.59;1769768;81;21146;-84
2021/05/23 07:59:07;;;;;;;2.62;1.17;;;;;;;24.07;32.13;100067.03;1770203;81;21226;-84
2021/05/23 08:02:13;;;;;;;6.15;1.40;;;;;;;24.11;32.21;100056.44;1770119;81;21266;-83
2021/05/23 08:05:20;;;;;;;6.42;1.35;;;;;;;24.10;31.90;100052.53;1770018;81;21300;-84
2021/05/23 08:08:26;;;;;;;3.90;1.15;;;;;;;24.07;32.16;100056.70;1770009;81;21273;-84
2021/05/23 08:11:30;;;;;;;4.40;1.00;;;;;;;24.01;31.70;100059.19;1769645;81;21276;-84
2021/05/23 08:14:37;;;;;;;3.25;1.10;;;;;;;24.05;31.91;100060.89;1770067;81;21194;-84
2021/05/23 08:17:45;;;;;;;3.17;0.98;;;;;;;24.12;30.45;100067.89;1770305;81;21304;-84
2021/05/23 08:20:54;;;;;;;1.47;1.00;;;;;;;24.18;30.33;100068.75;1768343;80;21165;-84
2021/05/23 08:23:58;;;;;;;3.52;0.95;;;;;;;24.22;30.28;100069.33;1762009;81;21283;-84
2021/05/23 08:27:05;;;;;;;7.33;1.10;;;;;;;24.26;29.99;100068.80;1768625;81;21297;-84
2021/05/23 08:30:11;;;;;;;6.87;1.60;;;;;;;24.25;28.95;100067.13;1768606;81;21296;-84
2021/05/23 08:33:18;;;;;;;5.45;1.20;;;;;;;24.28;29.46;100069.36;1768580;81;21307;-84
2021/05/23 08:36:25;;;;;;;3.83;1.25;;;;;;;24.33;30.35;100073.04;1769048;81;21315;-84
2021/05/23 08:39:31;;;;;;;2.52;1.12;;;;;;;24.32;30.76;100081.67;1768715;81;21233;-84
2021/05/23 08:42:36;;;;;;;2.00;1.05;;;;;;;24.34;30.51;100071.08;1769778;81;21292;-84
2021/05/23 08:45:41;;;;;;;3.80;1.15;;;;;;;24.38;29.76;100075.89;1761192;81;21297;-84
2021/05/23 08:48:48;;;;;;;2.80;1.05;;;;;;;24.44;30.51;100076.73;1769225;81;21751;-84
2021/05/23 08:51:55;;;;;;;2.62;1.10;;;;;;;24.47;29.51;100074.80;1770669;80;21257;-83
2021/05/23 08:55:00;;;;;;;5.30;1.50;;;;;;;24.41;29.77;100071.13;1783277;80;21609;-83
2021/05/23 08:58:06;;;;;;;2.45;1.00;;;;;;;24.39;29.61;100077.56;1782184;80;21295;-83
2021/05/23 09:01:12;;;;;;;5.83;1.22;;;;;;;24.34;30.00;100066.33;1783829;80;21791;-83
2021/05/23 09:04:25;;;;;;;3.27;1.22;;;;;;;24.33;31.13;100068.02;1783861;80;21335;-83
2021/05/23 09:07:33;;;;;;;3.70;0.95;;;;;;;24.36;30.38;100064.65;1771792;80;21296;-82
2021/05/23 09:10:41;;;;;;;1.57;0.90;;;;;;;24.39;30.28;100062.75;1784045;80;21652;-81
2021/05/23 09:13:46;;;;;;;8.43;1.10;;;;;;;24.40;29.61;100058.83;1783921;80;21319;-81
2021/05/23 09:16:54;;;;;;;3.15;1.00;;;;;;;24.33;27.47;100067.45;1783862;80;21806;-81
2021/05/23 09:20:00;;;;;;;7.03;1.35;;;;;;;24.29;27.72;100062.12;1783967;80;21268;-80
2021/05/23 09:23:06;;;;;;;1.95;0.98;;;;;;;24.33;28.03;100063.26;1783883;80;21304;-80
2021/05/23 09:26:12;;;;;;;4.17;0.98;;;;;;;24.43;28.04;100056.34;1783907;80;21873;-80
2021/05/23 09:29:29;;;;;;;8.50;1.30;;;;;;;24.53;28.77;100051.33;1783900;80;21181;-80
2021/05/23 09:32:34;;;;;;;2.67;1.10;;;;;;;24.56;28.03;100050.80;1783907;80;21184;-80
2021/05/23 09:35:40;;;;;;;3.42;0.90;;;;;;;24.52;28.42;100048.27;1783969;80;21268;-80
2021/05/23 09:39:07;;;;;;;8.33;1.50;;;;;;;24.45;28.31;100051.86;1784013;80;21841;-80
2021/05/23 09:42:15;;;;;;;3.05;0.98;;;;;;;24.40;28.49;100056.03;1783922;80;21153;-80
2021/05/23 09:45:22;;;;;;;5.85;0.95;;;;;;;24.35;28.66;100042.84;1782423;80;21161;-80
2021/05/23 09:48:34;;;;;;;6.35;1.20;;;;;;;24.39;29.59;100045.98;1783921;80;21298;-80
2021/05/23 09:51:40;;;;;;;3.50;0.75;;;;;;;24.46;29.18;100038.16;1783919;80;21352;-80
2021/05/23 09:54:59;;;;;;;3.17;1.70;;;;;;;24.54;27.57;100034.00;1772721;80;21280;-80
2021/05/23 09:58:04;;;;;;;2.10;0.90;;;;;;;24.57;26.42;100036.25;1770056;81;21193;-80
2021/05/23 10:01:09;;;;;;;1.40;0.90;;;;;;;24.67;27.26;100043.27;1770200;81;21177;-80
2021/05/23 10:04:17;;;;;;;1.07;0.70;;;;;;;24.71;27.42;100035.45;1770204;81;21297;-80
2021/05/23 10:07:22;;;;;;;3.60;1.07;;;;;;;24.81;27.41;100033.79;1762279;81;21221;-80
2021/05/23 10:10:28;;;;;;;3.50;0.90;;;;;;;24.97;27.51;100033.52;1770170;81;21285;-80
2021/05/23 10:13:34;;;;;;;3.25;0.75;;;;;;;25.11;26.65;100033.84;1770122;81;21771;-80
2021/05/23 10:16:41;;;;;;;2.00;0.70;;;;;;;25.21;26.09;100035.80;1770167;81;21894;-80
2021/05/23 10:19:45;;;;;;;1.70;0.70;;;;;;;25.39;25.18;100028.80;1761947;81;21190;-81
2021/05/23 10:22:50;;;;;;;0.88;0.70;;;;;;;25.61;24.83;100032.14;1770183;81;21292;-80
2021/05/23 10:26:03;;;;;;;1.52;0.50;;;;;;;25.79;25.73;100024.30;1770097;81;21288;-80
2021/05/23 10:29:09;;;;;;;4.37;0.60;;;;;;;26.00;26.93;100032.34;1770270;81;21767;-81
2021/05/23 10:32:29;;;;;;;0.65;0.40;;;;;;;26.09;24.76;100031.20;1765237;81;21284;-81
2021/05/23 10:35:36;;;;;;;4.58;0.60;;;;;;;26.01;24.61;100026.17;1769720;81;21875;-81
2021/05/23 10:38:41;;;;;;;0.78;0.50;;;;;;;25.84;24.57;100023.73;1769351;81;21336;-80
2021/05/23 10:41:47;;;;;;;3.90;0.70;;;;;;;25.81;24.98;100027.08;1770271;81;21151;-80
2021/05/23 10:44:56;;;;;;;2.52;0.60;;;;;;;25.86;24.25;100026.23;1768234;80;21166;-81
2021/05/23 10:48:04;;;;;;;3.25;0.65;;;;;;;25.91;24.75;100019.21;1769802;81;21294;-81
2021/05/23 10:51:23;;;;;;;5.55;0.78;;;;;;;25.96;25.11;100021.99;1768656;80;21146;-81
2021/05/23 10:54:28;;;;;;;1.20;0.57;;;;;;;26.09;25.70;100018.59;1770105;81;21277;-81
2021/05/23 10:57:52;;;;;;;0.88;0.70;;;;;;;26.15;25.70;100027.81;1770252;81;21382;-80
2021/05/23 11:01:05;;;;;;;1.50;0.60;;;;;;;26.10;25.76;100021.66;1770233;81;21265;-81
2021/05/23 11:04:19;;;;;;;2.00;0.72;;;;;;;26.09;25.86;100021.95;1770210;81;21331;-80
2021/05/23 11:07:25;;;;;;;4.53;0.60;;;;;;;26.08;26.01;100014.12;1770078;81;21296;-81
2021/05/23 11:10:53;;;;;;;2.02;0.57;;;;;;;26.02;26.72;100019.47;1770158;81;21301;-80
2021/05/23 11:13:54;;;;;;;5.50;0.85;;;;;;;25.84;26.56;100015.32;1770174;81;21181;-80
2021/05/23 11:17:03;;;;;;;0.90;0.50;;;;;;;25.77;26.74;100016.73;1770155;81;21189;-80
2021/05/23 11:20:21;;;;;;;1.07;0.65;;;;;;;25.72;26.92;100024.55;1770236;81;21248;-80
2021/05/23 11:23:28;;;;;;;3.05;0.70;;;;;;;25.72;27.34;100018.38;1770148;81;21304;-80
2021/05/23 11:26:33;;;;;;;1.70;0.42;;;;;;;25.67;27.13;100018.97;1769983;81;21324;-80
2021/05/23 11:29:38;;;;;;;3.52;0.60;;;;;;;25.66;26.38;100022.89;1770180;81;21186;-80
2021/05/23 11:32:43;;;;;;;1.00;0.50;;;;;;;25.69;26.28;100023.17;1770176;81;21328;-80
2021/05/23 11:35:50;;;;;;;1.75;0.68;;;;;;;25.72;26.05;100016.15;1770244;81;21142;-80
2021/05/23 11:38:57;;;;;;;7.37;0.82;;;;;;;25.79;26.61;100016.73;1770170;81;21866;-80
2021/05/23 11:42:02;;;;;;;2.02;0.70;;;;;;;25.70;26.78;100025.41;1770124;81;21345;-80
2021/05/23 11:45:10;;;;;;;1.12;0.55;;;;;;;25.58;27.47;100027.66;1770153;81;21158;-80
2021/05/23 11:48:15;;;;;;;1.98;0.65;;;;;;;25.55;28.55;100020.68;1770161;81;21358;-80
2021/05/23 11:51:22;;;;;;;1.82;0.93;;;;;;;25.51;28.86;100018.16;1770223;81;21144;-80
2021/05/23 11:54:28;;;;;;;1.22;0.60;;;;;;;25.52;28.73;100025.44;1770139;81;21886;-80
2021/05/23 11:57:35;;;;;;;0.82;0.53;;;;;;;25.62;29.30;100017.02;1783641;80;21941;-80
2021/05/23 12:00:40;;;;;;;2.60;0.75;;;;;;;25.66;29.13;100020.92;1783654;80;21845;-80
2021/05/23 12:03:49;;;;;;;1.67;0.88;;;;;;;25.64;28.83;100023.72;1783593;80;21304;-80
2021/05/23 12:07:00;;;;;;;4.22;1.00;;;;;;;25.60;30.91;100024.03;1781889;80;21711;-80
2021/05/23 12:10:05;;;;;;;6.87;0.90;;;;;;;25.58;30.26;100010.86;1783543;80;21296;-80
2021/05/23 12:13:11;;;;;;;2.02;0.70;;;;;;;25.55;30.37;100015.08;1783565;80;21311;-80
2021/05/23 12:16:15;;;;;;;2.58;1.00;;;;;;;25.49;30.67;100011.98;1783651;80;21842;-80
2021/05/23 12:19:21;;;;;;;2.37;1.00;;;;;;;25.44;31.09;100009.20;1783526;80;21181;-80
2021/05/23 12:22:46;;;;;;;6.53;1.07;;;;;;;25.39;32.02;100014.80;1783594;80;21770;-80
2021/05/23 12:25:51;;;;;;;1.20;0.75;;;;;;;25.27;31.92;100012.88;1781979;80;21146;-80
2021/05/23 12:28:59;;;;;;;5.83;1.02;;;;;;;25.15;32.36;100012.58;1783615;80;21209;-80
2021/05/23 12:32:04;;;;;;;1.10;0.60;;;;;;;25.12;32.68;100013.13;1783753;80;21822;-80
2021/05/23 12:35:23;;;;;;;3.30;0.70;;;;;;;25.14;32.37;100013.70;1783743;80;21300;-80
2021/05/23 12:38:28;;;;;;;1.77;0.75;;;;;;;25.12;33.25;100011.73;1783657;80;21185;-80
2021/05/23 12:41:48;;;;;;;5.97;0.70;;;;;;;25.10;33.69;100015.38;1783688;80;21292;-80
2021/05/23 12:44:54;;;;;;;;;;;;;;;25.08;32.92;100016.77;1784660;80;21157;-80
2021/05/23 12:48:01;;;;;;;1.98;1.02;;;;;;;25.06;34.17;100020.37;1783635;80;20248;-80
2021/05/23 12:51:06;;;;;;;9.98;1.07;;;;;;;25.01;33.65;100021.22;1783654;80;21284;-80
2021/05/23 12:54:11;;;;;;;5.30;1.20;;;;;;;24.96;34.09;100022.05;1783643;80;21296;-80
2021/05/23 12:57:16;;;;;;;3.60;0.90;;;;;;;24.91;34.34;100024.84;1777051;80;21288;-80
2021/05/23 13:00:23;;;;;;;11.25;1.20;;;;;;;24.88;34.04;100024.55;1770227;81;21704;-80
2021/05/23 13:03:29;;;;;;;3.83;0.80;;;;;;;24.86;34.86;100022.61;1770233;81;21756;-80
2021/05/23 13:06:56;;;;;;;3.90;1.22;;;;;;;24.76;35.96;100025.39;1770291;81;21296;-80
2021/05/23 13:10:02;;;;;;;4.50;1.00;;;;;;;24.65;36.45;100028.14;1770160;81;21284;-80
2021/05/23 13:13:09;;;;;;;8.48;1.27;;;;;;;24.52;37.08;100031.48;1770104;81;21264;-80
2021/05/23 13:16:15;;;;;;;1.27;0.98;;;;;;;24.48;38.13;100024.77;1770258;81;21261;-80
2021/05/23 13:19:21;;;;;;;2.72;1.35;;;;;;;24.42;38.09;100026.70;1770211;81;21324;-80
2021/05/23 13:22:29;;;;;;;4.00;1.07;;;;;;;24.42;38.55;100026.70;1770213;81;21269;-80
2021/05/23 13:25:36;;;;;;;2.27;0.88;;;;;;;24.47;38.37;100035.11;1770267;81;21158;-80
2021/05/23 13:28:41;;;;;;;13.75;1.52;;;;;;;24.48;37.89;100035.95;1770094;81;21272;-80
2021/05/23 13:31:47;;;;;;;6.40;1.35;;;;;;;24.44;37.70;100035.64;1770093;80;21142;-80
2021/05/23 13:34:53;;;;;;;4.55;1.10;;;;;;;24.45;37.23;100039.28;1770297;81;21269;-80
2021/05/23 13:38:01;;;;;;;2.17;1.02;;;;;;;24.44;38.01;100036.20;1770194;81;21292;-80
2021/05/23 13:41:06;;;;;;;2.25;0.98;;;;;;;24.49;37.90;100040.41;1770263;81;21202;-80
2021/05/23 13:44:14;;;;;;;2.90;0.80;;;;;;;24.55;37.94;100037.91;1770009;81;21264;-80
2021/05/23 13:47:20;;;;;;;3.87;0.98;;;;;;;24.66;37.57;100032.64;1770200;81;21320;-80
2021/05/23 13:50:25;;;;;;;1.98;1.10;;;;;;;24.73;36.68;100033.77;1770151;81;21319;-80
2021/05/23 13:53:31;;;;;;;2.20;0.95;;;;;;;24.71;36.64;100029.86;1770170;81;21296;-80
2021/05/23 13:56:36;;;;;;;2.10;1.17;;;;;;;24.68;36.03;100038.78;1770275;81;21154;-80
2021/05/23 13:59:42;;;;;;;2.27;0.90;;;;;;;24.64;37.20;100025.63;1769374;80;21192;-80
2021/05/23 14:02:47;;;;;;;1.90;1.00;;;;;;;24.64;37.56;100039.61;1770159;81;21312;-80
2021/05/23 14:06:02;;;;;;;3.72;1.10;;;;;;;24.64;38.39;100039.05;1770246;81;21328;-80
2021/05/23 14:09:07;;;;;;;3.08;0.80;;;;;;;24.63;37.81;100039.34;1770217;81;21296;-80
2021/05/23 14:12:13;;;;;;;2.00;1.05;;;;;;;24.55;36.45;100030.08;1770166;81;21707;-80
2021/05/23 14:15:18;;;;;;;1.95;0.80;;;;;;;24.47;36.48;100036.50;1770157;81;21190;-80
2021/05/23 14:18:26;;;;;;;3.25;0.90;;;;;;;24.41;36.76;100036.75;1769287;81;21217;-80
2021/05/23 14:21:31;;;;;;;1.30;0.80;;;;;;;24.33;36.91;100033.08;1770261;81;21261;-80
2021/05/23 14:24:36;;;;;;;4.12;0.80;;;;;;;24.28;37.92;100033.03;1770230;81;21300;-80
2021/05/23 14:27:41;;;;;;;5.22;1.10;;;;;;;24.23;37.84;100029.69;1770205;81;21189;-80